sensor_id;sensor_type;location;lat;lon;timestamp;pressure;altitude;pressure_sealevel;temperature;humidity
35551;BME280;21655;46.056;13.616;2023-01-31T00:00:17;100578.56;;;-0.91;100.00
35551;BME280;21655;46.056;13.616;2023-01-31T00:02:43;100587.19;;;-0.85;100.00
35551;BME280;21655;46.056;13.616;2023-01-31T00:05:08;100588.50;;;-0.64;100.00
35551;BME280;21655;46.056;13.616;2023-01-31T00:07:34;100585.88;;;-0.53;100.00
35551;BME280;21655;46.056;13.616;2023-01-31T00:09:59;100590.56;;;-0.42;100.00
35551;BME280;21655;46.056;13.616;2023-01-31T00:12:24;100602.94;;;-0.63;100.00
35551;BME280;21655;46.056;13.616;2023-01-31T00:14:51;100614.56;;;-0.74;100.00
35551;BME280;21655;46.056;13.616;2023-01-31T00:17:16;100607.44;;;-0.89;100.00
35551;BME280;21655;46.056;13.616;2023-01-31T00:19:42;100611.59;;;-0.83;100.00
35551;BME280;21655;46.056;13.616;2023-01-31T00:22:07;100627.16;;;-0.85;100.00
35551;BME280;21655;46.056;13.616;2023-01-31T00:24:32;100627.03;;;-0.84;100.00
35551;BME280;21655;46.056;13.616;2023-01-31T00:26:58;100620.94;;;-0.87;100.00
35551;BME280;21655;46.056;13.616;2023-01-31T00:29:24;100629.03;;;-1.00;100.00
35551;BME280;21655;46.056;13.616;2023-01-31T00:31:50;100624.09;;;-1.07;100.00
35551;BME280;21655;46.056;13.616;2023-01-31T00:34:16;100627.03;;;-1.10;100.00
35551;BME280;21655;46.056;13.616;2023-01-31T00:36:41;100643.47;;;-1.12;100.00
35551;BME280;21655;46.056;13.616;2023-01-31T00:39:08;100645.72;;;-1.18;100.00
35551;BME280;21655;46.056;13.616;2023-01-31T00:41:35;100649.00;;;-1.27;100.00
35551;BME280;21655;46.056;13.616;2023-01-31T00:44:01;100665.13;;;-1.24;100.00
35551;BME280;21655;46.056;13.616;2023-01-31T00:46:27;100658.44;;;-1.19;100.00
35551;BME280;21655;46.056;13.616;2023-01-31T00:48:53;100650.69;;;-1.25;100.00
35551;BME280;21655;46.056;13.616;2023-01-31T00:51:21;100666.69;;;-1.20;100.00
35551;BME280;21655;46.056;13.616;2023-01-31T00:53:47;100668.81;;;-1.25;100.00
35551;BME280;21655;46.056;13.616;2023-01-31T00:56:18;100659.03;;;-1.28;100.00
35551;BME280;21655;46.056;13.616;2023-01-31T00:58:44;100664.47;;;-1.28;100.00
35551;BME280;21655;46.056;13.616;2023-01-31T01:01:24;100660.09;;;-1.30;100.00
35551;BME280;21655;46.056;13.616;2023-01-31T01:03:51;100673.50;;;-1.27;100.00
35551;BME280;21655;46.056;13.616;2023-01-31T01:06:17;100668.59;;;-1.08;100.00
35551;BME280;21655;46.056;13.616;2023-01-31T01:08:43;100677.59;;;-1.20;100.00
35551;BME280;21655;46.056;13.616;2023-01-31T01:11:13;100672.72;;;-1.15;100.00
35551;BME280;21655;46.056;13.616;2023-01-31T01:13:40;100666.22;;;-1.13;100.00
35551;BME280;21655;46.056;13.616;2023-01-31T01:16:11;100693.69;;;-1.17;100.00
35551;BME280;21655;46.056;13.616;2023-01-31T01:18:37;100680.69;;;-1.26;100.00
35551;BME280;21655;46.056;13.616;2023-01-31T01:21:15;100692.94;;;-1.33;100.00
35551;BME280;21655;46.056;13.616;2023-01-31T01:23:42;100674.66;;;-1.31;100.00
35551;BME280;21655;46.056;13.616;2023-01-31T01:26:19;100689.81;;;-1.27;100.00
35551;BME280;21655;46.056;13.616;2023-01-31T01:28:46;100686.72;;;-1.35;100.00
35551;BME280;21655;46.056;13.616;2023-01-31T01:31:13;100708.47;;;-1.35;100.00
35551;BME280;21655;46.056;13.616;2023-01-31T01:33:40;100710.91;;;-1.45;100.00
35551;BME280;21655;46.056;13.616;2023-01-31T01:36:08;100711.97;;;-1.47;100.00
35551;BME280;21655;46.056;13.616;2023-01-31T01:38:38;100725.84;;;-1.52;100.00
35551;BME280;21655;46.056;13.616;2023-01-31T01:41:04;100717.03;;;-1.55;100.00
35551;BME280;21655;46.056;13.616;2023-01-31T01:46:24;100720.59;;;-1.55;100.00
35551;BME280;21655;46.056;13.616;2023-01-31T01:48:55;100719.56;;;-1.38;100.00
35551;BME280;21655;46.056;13.616;2023-01-31T01:51:22;100744.50;;;-1.46;100.00
35551;BME280;21655;46.056;13.616;2023-01-31T01:53:52;100728.06;;;-1.44;100.00
35551;BME280;21655;46.056;13.616;2023-01-31T01:56:25;100723.31;;;-1.41;100.00
35551;BME280;21655;46.056;13.616;2023-01-31T01:58:58;100705.34;;;-1.29;100.00
35551;BME280;21655;46.056;13.616;2023-01-31T02:01:28;100723.13;;;-1.38;100.00
35551;BME280;21655;46.056;13.616;2023-01-31T02:03:55;100725.47;;;-1.46;100.00
35551;BME280;21655;46.056;13.616;2023-01-31T02:06:21;100709.94;;;-1.44;100.00
35551;BME280;21655;46.056;13.616;2023-01-31T02:08:47;100729.72;;;-1.56;100.00
35551;BME280;21655;46.056;13.616;2023-01-31T02:11:26;100733.13;;;-1.52;100.00
35551;BME280;21655;46.056;13.616;2023-01-31T02:13:57;100722.44;;;-1.41;100.00
35551;BME280;21655;46.056;13.616;2023-01-31T02:16:24;100731.41;;;-1.39;100.00
35551;BME280;21655;46.056;13.616;2023-01-31T02:18:49;100737.31;;;-1.47;100.00
35551;BME280;21655;46.056;13.616;2023-01-31T02:40:37;100760.19;;;-1.51;100.00
35551;BME280;21655;46.056;13.616;2023-01-31T02:46:35;100774.09;;;-1.55;100.00
35551;BME280;21655;46.056;13.616;2023-01-31T02:49:14;100778.94;;;-1.60;100.00
35551;BME280;21655;46.056;13.616;2023-01-31T02:52:07;100773.69;;;-1.63;100.00
35551;BME280;21655;46.056;13.616;2023-01-31T02:54:59;100789.22;;;-1.65;100.00
35551;BME280;21655;46.056;13.616;2023-01-31T02:57:48;100778.81;;;-1.73;100.00
35551;BME280;21655;46.056;13.616;2023-01-31T03:00:15;100786.19;;;-1.75;100.00
35551;BME280;21655;46.056;13.616;2023-01-31T03:02:43;100782.75;;;-1.78;100.00
35551;BME280;21655;46.056;13.616;2023-01-31T03:05:13;100804.78;;;-1.83;100.00
35551;BME280;21655;46.056;13.616;2023-01-31T03:07:41;100791.38;;;-1.86;100.00
35551;BME280;21655;46.056;13.616;2023-01-31T03:10:25;100786.56;;;-1.81;100.00
35551;BME280;21655;46.056;13.616;2023-01-31T03:21:38;100814.72;;;-1.97;100.00
35551;BME280;21655;46.056;13.616;2023-01-31T03:24:06;100821.41;;;-2.02;100.00
35551;BME280;21655;46.056;13.616;2023-01-31T03:26:33;100813.06;;;-1.99;100.00
35551;BME280;21655;46.056;13.616;2023-01-31T03:29:00;100827.72;;;-2.02;100.00
35551;BME280;21655;46.056;13.616;2023-01-31T03:31:35;100838.59;;;-2.02;100.00
35551;BME280;21655;46.056;13.616;2023-01-31T03:34:07;100830.06;;;-1.96;100.00
35551;BME280;21655;46.056;13.616;2023-01-31T03:42:01;100842.25;;;-2.03;100.00
35551;BME280;21655;46.056;13.616;2023-01-31T03:47:25;100842.97;;;-2.15;100.00
35551;BME280;21655;46.056;13.616;2023-01-31T03:49:54;100855.22;;;-2.08;100.00
35551;BME280;21655;46.056;13.616;2023-01-31T03:55:36;100864.06;;;-1.89;100.00
35551;BME280;21655;46.056;13.616;2023-01-31T03:58:05;100872.94;;;-2.01;100.00
35551;BME280;21655;46.056;13.616;2023-01-31T04:00:34;100863.81;;;-2.00;100.00
35551;BME280;21655;46.056;13.616;2023-01-31T04:03:29;100852.84;;;-1.98;100.00
35551;BME280;21655;46.056;13.616;2023-01-31T04:05:53;100855.06;;;-2.05;100.00
35551;BME280;21655;46.056;13.616;2023-01-31T04:08:19;100870.47;;;-2.05;100.00
35551;BME280;21655;46.056;13.616;2023-01-31T04:10:45;100855.56;;;-1.98;100.00
35551;BME280;21655;46.056;13.616;2023-01-31T04:13:10;100849.97;;;-1.95;100.00
35551;BME280;21655;46.056;13.616;2023-01-31T04:15:36;100859.09;;;-1.96;100.00
35551;BME280;21655;46.056;13.616;2023-01-31T04:18:01;100869.56;;;-2.06;100.00
35551;BME280;21655;46.056;13.616;2023-01-31T04:20:27;100865.47;;;-2.13;100.00
35551;BME280;21655;46.056;13.616;2023-01-31T04:22:52;100864.94;;;-2.19;100.00
35551;BME280;21655;46.056;13.616;2023-01-31T04:25:17;100872.91;;;-2.16;100.00
35551;BME280;21655;46.056;13.616;2023-01-31T04:27:43;100876.78;;;-2.20;100.00
35551;BME280;21655;46.056;13.616;2023-01-31T04:30:09;100877.16;;;-2.26;100.00
35551;BME280;21655;46.056;13.616;2023-01-31T04:32:34;100882.38;;;-2.39;100.00
35551;BME280;21655;46.056;13.616;2023-01-31T04:35:00;100876.16;;;-2.41;100.00
35551;BME280;21655;46.056;13.616;2023-01-31T04:37:25;100878.09;;;-2.43;100.00
35551;BME280;21655;46.056;13.616;2023-01-31T04:39:51;100884.22;;;-2.39;100.00
35551;BME280;21655;46.056;13.616;2023-01-31T04:42:16;100882.47;;;-2.40;100.00
35551;BME280;21655;46.056;13.616;2023-01-31T04:44:41;100880.91;;;-2.44;100.00
35551;BME280;21655;46.056;13.616;2023-01-31T04:47:07;100886.84;;;-2.53;100.00
35551;BME280;21655;46.056;13.616;2023-01-31T04:49:32;100889.38;;;-2.50;100.00
35551;BME280;21655;46.056;13.616;2023-01-31T04:51:58;100876.44;;;-2.45;100.00
35551;BME280;21655;46.056;13.616;2023-01-31T04:54:23;100897.88;;;-2.41;100.00
35551;BME280;21655;46.056;13.616;2023-01-31T04:56:48;100888.34;;;-2.32;100.00
35551;BME280;21655;46.056;13.616;2023-01-31T04:59:14;100893.69;;;-2.31;100.00
35551;BME280;21655;46.056;13.616;2023-01-31T05:01:40;100879.88;;;-2.26;100.00
35551;BME280;21655;46.056;13.616;2023-01-31T05:04:06;100894.06;;;-2.37;100.00
35551;BME280;21655;46.056;13.616;2023-01-31T05:06:32;100898.66;;;-2.39;100.00
35551;BME280;21655;46.056;13.616;2023-01-31T05:08:57;100908.72;;;-2.41;100.00
35551;BME280;21655;46.056;13.616;2023-01-31T05:11:26;100904.38;;;-2.43;100.00
35551;BME280;21655;46.056;13.616;2023-01-31T05:13:51;100907.41;;;-2.49;100.00
35551;BME280;21655;46.056;13.616;2023-01-31T05:16:16;100905.75;;;-2.52;100.00
35551;BME280;21655;46.056;13.616;2023-01-31T05:18:42;100904.88;;;-2.52;100.00
35551;BME280;21655;46.056;13.616;2023-01-31T05:21:07;100910.47;;;-2.55;100.00
35551;BME280;21655;46.056;13.616;2023-01-31T05:23:33;100900.84;;;-2.61;100.00
35551;BME280;21655;46.056;13.616;2023-01-31T05:25:58;100906.38;;;-2.62;100.00
35551;BME280;21655;46.056;13.616;2023-01-31T05:28:24;100914.94;;;-2.54;100.00
35551;BME280;21655;46.056;13.616;2023-01-31T05:30:53;100917.47;;;-2.67;100.00
35551;BME280;21655;46.056;13.616;2023-01-31T05:33:25;100930.31;;;-2.70;100.00
35551;BME280;21655;46.056;13.616;2023-01-31T05:35:52;100938.22;;;-2.66;100.00
35551;BME280;21655;46.056;13.616;2023-01-31T05:38:17;100937.59;;;-2.71;100.00
35551;BME280;21655;46.056;13.616;2023-01-31T05:40:42;100939.47;;;-2.73;100.00
35551;BME280;21655;46.056;13.616;2023-01-31T05:43:08;100948.34;;;-2.69;100.00
35551;BME280;21655;46.056;13.616;2023-01-31T05:45:33;100945.81;;;-2.72;100.00
35551;BME280;21655;46.056;13.616;2023-01-31T05:47:59;100944.84;;;-2.71;100.00
35551;BME280;21655;46.056;13.616;2023-01-31T05:50:24;100953.22;;;-2.76;100.00
35551;BME280;21655;46.056;13.616;2023-01-31T05:52:55;100955.88;;;-2.74;100.00
35551;BME280;21655;46.056;13.616;2023-01-31T05:55:21;100955.31;;;-2.81;100.00
35551;BME280;21655;46.056;13.616;2023-01-31T05:57:46;100954.75;;;-2.87;100.00
35551;BME280;21655;46.056;13.616;2023-01-31T06:00:13;100955.91;;;-2.91;100.00
35551;BME280;21655;46.056;13.616;2023-01-31T06:02:39;100957.81;;;-2.93;100.00
35551;BME280;21655;46.056;13.616;2023-01-31T06:05:06;100961.31;;;-2.91;100.00
35551;BME280;21655;46.056;13.616;2023-01-31T06:07:31;100952.44;;;-2.78;100.00
35551;BME280;21655;46.056;13.616;2023-01-31T06:09:57;100961.78;;;-2.83;100.00
35551;BME280;21655;46.056;13.616;2023-01-31T06:12:22;100967.38;;;-2.86;100.00
35551;BME280;21655;46.056;13.616;2023-01-31T06:14:48;100973.81;;;-2.89;100.00
35551;BME280;21655;46.056;13.616;2023-01-31T06:17:13;100972.00;;;-2.88;100.00
35551;BME280;21655;46.056;13.616;2023-01-31T06:19:38;100977.34;;;-2.87;100.00
35551;BME280;21655;46.056;13.616;2023-01-31T06:22:04;100987.06;;;-2.83;100.00
35551;BME280;21655;46.056;13.616;2023-01-31T06:24:30;100980.88;;;-2.85;100.00
35551;BME280;21655;46.056;13.616;2023-01-31T06:26:55;100969.84;;;-2.82;100.00
35551;BME280;21655;46.056;13.616;2023-01-31T06:29:21;100977.97;;;-2.82;100.00
35551;BME280;21655;46.056;13.616;2023-01-31T06:31:46;100992.50;;;-2.83;100.00
35551;BME280;21655;46.056;13.616;2023-01-31T06:34:12;100990.66;;;-2.82;100.00
35551;BME280;21655;46.056;13.616;2023-01-31T06:36:37;100992.56;;;-2.84;100.00
35551;BME280;21655;46.056;13.616;2023-01-31T06:39:03;100995.38;;;-2.86;100.00
35551;BME280;21655;46.056;13.616;2023-01-31T06:41:28;101010.69;;;-2.85;100.00
35551;BME280;21655;46.056;13.616;2023-01-31T06:43:54;101005.97;;;-2.81;100.00
35551;BME280;21655;46.056;13.616;2023-01-31T06:46:20;101006.63;;;-2.76;100.00
35551;BME280;21655;46.056;13.616;2023-01-31T06:48:46;101008.69;;;-2.81;100.00
35551;BME280;21655;46.056;13.616;2023-01-31T06:51:15;101012.91;;;-2.76;100.00
35551;BME280;21655;46.056;13.616;2023-01-31T06:53:40;101019.13;;;-2.74;100.00
35551;BME280;21655;46.056;13.616;2023-01-31T06:56:06;101027.13;;;-2.71;100.00
35551;BME280;21655;46.056;13.616;2023-01-31T06:58:32;101022.22;;;-2.64;100.00
35551;BME280;21655;46.056;13.616;2023-01-31T07:01:07;101030.22;;;-2.61;100.00
35551;BME280;21655;46.056;13.616;2023-01-31T07:03:33;101029.56;;;-2.66;100.00
35551;BME280;21655;46.056;13.616;2023-01-31T07:05:58;101041.56;;;-2.70;100.00
35551;BME280;21655;46.056;13.616;2023-01-31T07:08:24;101044.88;;;-2.65;100.00
35551;BME280;21655;46.056;13.616;2023-01-31T07:10:49;101038.19;;;-2.58;100.00
35551;BME280;21655;46.056;13.616;2023-01-31T07:13:14;101034.41;;;-2.56;100.00
35551;BME280;21655;46.056;13.616;2023-01-31T07:15:40;101039.06;;;-2.58;100.00
35551;BME280;21655;46.056;13.616;2023-01-31T07:18:06;101038.03;;;-2.55;100.00
35551;BME280;21655;46.056;13.616;2023-01-31T07:20:31;101047.94;;;-2.54;100.00
35551;BME280;21655;46.056;13.616;2023-01-31T07:22:58;101050.22;;;-2.47;100.00
35551;BME280;21655;46.056;13.616;2023-01-31T07:25:25;101053.56;;;-2.42;100.00
35551;BME280;21655;46.056;13.616;2023-01-31T07:27:50;101052.53;;;-2.39;100.00
35551;BME280;21655;46.056;13.616;2023-01-31T07:30:16;101057.47;;;-2.30;100.00
35551;BME280;21655;46.056;13.616;2023-01-31T07:32:42;101066.31;;;-2.27;100.00
35551;BME280;21655;46.056;13.616;2023-01-31T07:35:07;101077.59;;;-2.34;100.00
35551;BME280;21655;46.056;13.616;2023-01-31T07:37:33;101074.03;;;-2.19;100.00
35551;BME280;21655;46.056;13.616;2023-01-31T07:39:58;101079.97;;;-1.96;100.00
35551;BME280;21655;46.056;13.616;2023-01-31T07:42:23;101081.16;;;-1.69;100.00
35551;BME280;21655;46.056;13.616;2023-01-31T07:44:49;101075.03;;;-1.42;100.00
35551;BME280;21655;46.056;13.616;2023-01-31T07:47:15;101088.03;;;-0.86;100.00
35551;BME280;21655;46.056;13.616;2023-01-31T07:49:40;101082.03;;;2.19;100.00
35551;BME280;21655;46.056;13.616;2023-01-31T07:52:05;101078.69;;;6.07;100.00
35551;BME280;21655;46.056;13.616;2023-01-31T07:54:31;101073.38;;;7.92;100.00
35551;BME280;21655;46.056;13.616;2023-01-31T07:56:56;101071.03;;;9.52;100.00
35551;BME280;21655;46.056;13.616;2023-01-31T07:59:22;101072.47;;;10.77;89.40
35551;BME280;21655;46.056;13.616;2023-01-31T08:01:47;101084.22;;;9.58;79.35
35551;BME280;21655;46.056;13.616;2023-01-31T08:04:32;101096.47;;;5.51;97.68
35551;BME280;21655;46.056;13.616;2023-01-31T08:06:58;101097.19;;;3.67;100.00
35551;BME280;21655;46.056;13.616;2023-01-31T08:09:25;101100.41;;;2.78;100.00
35551;BME280;21655;46.056;13.616;2023-01-31T08:11:51;101100.19;;;2.33;100.00
35551;BME280;21655;46.056;13.616;2023-01-31T08:14:16;101111.22;;;2.44;100.00
35551;BME280;21655;46.056;13.616;2023-01-31T08:16:41;101100.47;;;6.10;100.00
35551;BME280;21655;46.056;13.616;2023-01-31T08:19:07;101102.00;;;9.11;100.00
35551;BME280;21655;46.056;13.616;2023-01-31T08:21:32;101092.31;;;10.39;87.05
35551;BME280;21655;46.056;13.616;2023-01-31T08:23:58;101095.63;;;6.74;100.00
35551;BME280;21655;46.056;13.616;2023-01-31T08:26:23;101115.84;;;4.86;100.00
35551;BME280;21655;46.056;13.616;2023-01-31T08:28:50;101112.94;;;5.09;100.00
35551;BME280;21655;46.056;13.616;2023-01-31T08:31:21;101096.03;;;9.95;100.00
35551;BME280;21655;46.056;13.616;2023-01-31T08:33:46;101094.91;;;13.94;72.66
35551;BME280;21655;46.056;13.616;2023-01-31T08:36:22;101094.13;;;16.48;55.99
35551;BME280;21655;46.056;13.616;2023-01-31T08:38:48;101076.53;;;18.30;46.51
35551;BME280;21655;46.056;13.616;2023-01-31T08:41:15;101075.69;;;19.33;42.13
35551;BME280;21655;46.056;13.616;2023-01-31T08:43:42;101069.41;;;20.01;39.39
35551;BME280;21655;46.056;13.616;2023-01-31T08:46:07;101078.94;;;20.06;37.81
35551;BME280;21655;46.056;13.616;2023-01-31T08:48:34;101083.06;;;18.89;38.25
35551;BME280;21655;46.056;13.616;2023-01-31T08:51:01;101081.94;;;19.48;37.55
35551;BME280;21655;46.056;13.616;2023-01-31T08:53:27;101083.72;;;19.29;37.83
35551;BME280;21655;46.056;13.616;2023-01-31T08:56:00;101079.09;;;20.18;36.63
35551;BME280;21655;46.056;13.616;2023-01-31T08:58:25;101084.00;;;20.91;36.27
35551;BME280;21655;46.056;13.616;2023-01-31T09:00:51;101084.69;;;20.93;35.01
35551;BME280;21655;46.056;13.616;2023-01-31T09:03:16;101082.72;;;21.78;34.31
35551;BME280;21655;46.056;13.616;2023-01-31T09:05:42;101078.59;;;20.27;35.46
35551;BME280;21655;46.056;13.616;2023-01-31T09:08:07;101088.69;;;18.95;36.53
35551;BME280;21655;46.056;13.616;2023-01-31T09:10:32;101086.50;;;19.36;36.51
35551;BME280;21655;46.056;13.616;2023-01-31T09:12:59;101076.59;;;19.20;36.35
35551;BME280;21655;46.056;13.616;2023-01-31T09:15:24;101081.66;;;19.69;36.41
35551;BME280;21655;46.056;13.616;2023-01-31T09:17:51;101097.97;;;19.41;37.75
35551;BME280;21655;46.056;13.616;2023-01-31T09:20:16;101103.09;;;20.27;35.26
35551;BME280;21655;46.056;13.616;2023-01-31T09:22:42;101096.41;;;21.14;33.41
35551;BME280;21655;46.056;13.616;2023-01-31T09:25:08;101083.19;;;21.93;32.39
35551;BME280;21655;46.056;13.616;2023-01-31T09:27:35;101089.47;;;21.95;31.15
35551;BME280;21655;46.056;13.616;2023-01-31T09:30:02;101096.69;;;21.73;31.21
35551;BME280;21655;46.056;13.616;2023-01-31T09:32:28;101090.09;;;21.79;30.95
35551;BME280;21655;46.056;13.616;2023-01-31T09:34:54;101082.16;;;23.05;30.41
35551;BME280;21655;46.056;13.616;2023-01-31T09:37:20;101098.44;;;22.57;30.09
35551;BME280;21655;46.056;13.616;2023-01-31T09:39:45;101089.03;;;22.86;29.80
35551;BME280;21655;46.056;13.616;2023-01-31T09:47:51;101083.00;;;22.83;29.58
35551;BME280;21655;46.056;13.616;2023-01-31T09:50:29;101077.63;;;24.07;28.39
35551;BME280;21655;46.056;13.616;2023-01-31T09:52:57;101082.84;;;23.30;29.97
35551;BME280;21655;46.056;13.616;2023-01-31T09:55:45;101078.16;;;23.93;29.16
35551;BME280;21655;46.056;13.616;2023-01-31T09:58:37;101084.31;;;24.01;28.03
35551;BME280;21655;46.056;13.616;2023-01-31T10:01:40;101075.84;;;21.31;29.37
35551;BME280;21655;46.056;13.616;2023-01-31T10:04:37;101078.00;;;22.96;28.30
35551;BME280;21655;46.056;13.616;2023-01-31T10:07:44;101069.00;;;22.29;29.12
35551;BME280;21655;46.056;13.616;2023-01-31T10:12:58;101067.00;;;22.18;28.83
35551;BME280;21655;46.056;13.616;2023-01-31T10:15:28;101055.53;;;22.60;28.08
35551;BME280;21655;46.056;13.616;2023-01-31T10:18:09;101060.78;;;21.55;29.09
35551;BME280;21655;46.056;13.616;2023-01-31T10:20:44;101066.25;;;20.90;29.29
35551;BME280;21655;46.056;13.616;2023-01-31T10:23:13;101062.22;;;21.04;29.33
35551;BME280;21655;46.056;13.616;2023-01-31T10:25:48;101059.91;;;21.79;29.62
35551;BME280;21655;46.056;13.616;2023-01-31T10:28:19;101057.16;;;20.88;29.64
35551;BME280;21655;46.056;13.616;2023-01-31T10:31:03;101056.81;;;21.02;30.47
35551;BME280;21655;46.056;13.616;2023-01-31T10:33:50;101060.44;;;21.09;29.65
35551;BME280;21655;46.056;13.616;2023-01-31T10:36:27;101052.38;;;20.82;29.48
35551;BME280;21655;46.056;13.616;2023-01-31T10:39:04;101042.53;;;21.94;28.11
35551;BME280;21655;46.056;13.616;2023-01-31T10:41:38;101036.22;;;21.62;28.18
35551;BME280;21655;46.056;13.616;2023-01-31T10:44:16;101040.25;;;21.30;29.37
35551;BME280;21655;46.056;13.616;2023-01-31T10:46:43;101033.44;;;20.40;29.81
35551;BME280;21655;46.056;13.616;2023-01-31T10:49:09;101026.44;;;21.22;30.27
35551;BME280;21655;46.056;13.616;2023-01-31T10:54:31;101018.94;;;21.34;29.58
35551;BME280;21655;46.056;13.616;2023-01-31T10:57:00;101016.22;;;21.64;28.90
35551;BME280;21655;46.056;13.616;2023-01-31T10:59:29;101011.75;;;20.65;30.74
35551;BME280;21655;46.056;13.616;2023-01-31T11:01:58;101024.94;;;20.16;30.15
35551;BME280;21655;46.056;13.616;2023-01-31T11:04:28;101015.16;;;21.22;28.89
35551;BME280;21655;46.056;13.616;2023-01-31T11:06:58;101007.72;;;21.46;29.10
35551;BME280;21655;46.056;13.616;2023-01-31T11:09:33;101001.91;;;21.23;28.98
35551;BME280;21655;46.056;13.616;2023-01-31T11:12:05;100999.19;;;21.70;28.19
35551;BME280;21655;46.056;13.616;2023-01-31T11:14:31;100996.72;;;21.92;28.56
35551;BME280;21655;46.056;13.616;2023-01-31T11:16:59;100989.00;;;22.17;27.11
35551;BME280;21655;46.056;13.616;2023-01-31T11:21:56;100980.19;;;22.66;27.58
35551;BME280;21655;46.056;13.616;2023-01-31T11:24:23;100988.16;;;22.57;27.34
35551;BME280;21655;46.056;13.616;2023-01-31T11:26:54;100978.94;;;22.32;28.06
35551;BME280;21655;46.056;13.616;2023-01-31T11:29:26;100978.34;;;22.94;27.27
35551;BME280;21655;46.056;13.616;2023-01-31T11:31:53;100978.22;;;21.78;27.89
35551;BME280;21655;46.056;13.616;2023-01-31T11:34:25;100974.94;;;21.27;29.13
35551;BME280;21655;46.056;13.616;2023-01-31T11:36:51;100975.22;;;21.91;27.90
35551;BME280;21655;46.056;13.616;2023-01-31T11:39:32;100971.56;;;21.18;29.13
35551;BME280;21655;46.056;13.616;2023-01-31T11:42:09;100965.94;;;21.36;29.17
35551;BME280;21655;46.056;13.616;2023-01-31T11:44:36;100959.66;;;21.70;29.30
35551;BME280;21655;46.056;13.616;2023-01-31T11:47:03;100952.25;;;23.03;27.56
35551;BME280;21655;46.056;13.616;2023-01-31T11:49:39;100947.09;;;23.23;27.39
35551;BME280;21655;46.056;13.616;2023-01-31T11:52:17;100938.38;;;22.27;28.22
35551;BME280;21655;46.056;13.616;2023-01-31T11:54:50;100939.53;;;21.67;29.46
35551;BME280;21655;46.056;13.616;2023-01-31T11:57:49;100937.50;;;22.56;28.93
35551;BME280;21655;46.056;13.616;2023-01-31T12:00:22;100926.97;;;22.33;27.76
35551;BME280;21655;46.056;13.616;2023-01-31T12:03:04;100923.69;;;21.95;29.26
35551;BME280;21655;46.056;13.616;2023-01-31T12:05:34;100929.13;;;22.72;28.48
35551;BME280;21655;46.056;13.616;2023-01-31T12:08:01;100924.69;;;22.53;28.56
35551;BME280;21655;46.056;13.616;2023-01-31T12:10:30;100928.44;;;22.24;28.93
35551;BME280;21655;46.056;13.616;2023-01-31T12:13:12;100916.44;;;21.99;28.20
35551;BME280;21655;46.056;13.616;2023-01-31T12:21:19;100924.53;;;20.52;30.12
35551;BME280;21655;46.056;13.616;2023-01-31T12:34:56;100923.50;;;17.87;32.05
35551;BME280;21655;46.056;13.616;2023-01-31T12:42:57;100912.25;;;17.61;33.02
35551;BME280;21655;46.056;13.616;2023-01-31T12:56:52;100925.28;;;19.79;29.21
35551;BME280;21655;46.056;13.616;2023-01-31T13:04:59;100920.81;;;19.65;28.49
35551;BME280;21655;46.056;13.616;2023-01-31T13:07:35;100910.31;;;19.48;27.20
35551;BME280;21655;46.056;13.616;2023-01-31T13:10:06;100919.91;;;20.09;27.80
35551;BME280;21655;46.056;13.616;2023-01-31T13:12:40;100923.53;;;20.65;26.95
35551;BME280;21655;46.056;13.616;2023-01-31T13:15:14;100908.38;;;20.41;26.61
35551;BME280;21655;46.056;13.616;2023-01-31T13:17:42;100912.59;;;20.26;26.16
35551;BME280;21655;46.056;13.616;2023-01-31T13:20:29;100904.56;;;19.67;25.35
35551;BME280;21655;46.056;13.616;2023-01-31T13:23:00;100907.03;;;19.57;26.14
35551;BME280;21655;46.056;13.616;2023-01-31T13:28:02;100893.19;;;20.42;25.64
35551;BME280;21655;46.056;13.616;2023-01-31T13:36:01;100886.03;;;19.09;27.34
35551;BME280;21655;46.056;13.616;2023-01-31T13:38:36;100890.66;;;19.41;27.05
35551;BME280;21655;46.056;13.616;2023-01-31T13:41:04;100892.13;;;19.81;26.81
35551;BME280;21655;46.056;13.616;2023-01-31T13:43:30;100890.22;;;19.44;26.22
35551;BME280;21655;46.056;13.616;2023-01-31T13:46:01;100885.63;;;18.99;26.87
35551;BME280;21655;46.056;13.616;2023-01-31T13:49:02;100889.97;;;18.89;27.34
35551;BME280;21655;46.056;13.616;2023-01-31T13:51:37;100889.03;;;18.32;27.28
35551;BME280;21655;46.056;13.616;2023-01-31T13:54:25;100879.50;;;17.81;28.14
35551;BME280;21655;46.056;13.616;2023-01-31T13:56:54;100884.25;;;18.06;28.19
35551;BME280;21655;46.056;13.616;2023-01-31T13:59:28;100874.94;;;17.73;27.87
35551;BME280;21655;46.056;13.616;2023-01-31T14:01:58;100884.25;;;17.93;29.03
35551;BME280;21655;46.056;13.616;2023-01-31T14:04:31;100889.78;;;18.84;28.54
35551;BME280;21655;46.056;13.616;2023-01-31T14:09:35;100883.78;;;18.61;28.44
35551;BME280;21655;46.056;13.616;2023-01-31T14:17:07;100878.22;;;18.35;29.49
35551;BME280;21655;46.056;13.616;2023-01-31T14:25:40;100869.78;;;18.48;27.30
35551;BME280;21655;46.056;13.616;2023-01-31T14:28:09;100865.69;;;17.99;29.17
35551;BME280;21655;46.056;13.616;2023-01-31T14:30:39;100865.69;;;17.99;29.72
35551;BME280;21655;46.056;13.616;2023-01-31T14:47:22;100878.47;;;17.22;32.74
35551;BME280;21655;46.056;13.616;2023-01-31T14:50:05;100886.38;;;16.65;32.83
35551;BME280;21655;46.056;13.616;2023-01-31T14:53:20;100878.69;;;16.40;34.12
35551;BME280;21655;46.056;13.616;2023-01-31T14:56:13;100895.25;;;16.14;34.77
35551;BME280;21655;46.056;13.616;2023-01-31T14:58:43;100897.03;;;15.73;34.98
35551;BME280;21655;46.056;13.616;2023-01-31T15:01:10;100884.59;;;15.54;35.15